createdAt,value
2019-05-15T00:01:41.040Z,9.20
2019-05-15T00:04:10.032Z,9.20
2019-05-15T00:06:39.605Z,9.20
2019-05-15T00:09:09.246Z,9.20
2019-05-15T00:11:39.102Z,9.20
2019-05-15T00:14:08.811Z,9.20
2019-05-15T00:16:38.812Z,9.10
2019-05-15T00:19:08.776Z,9.10
2019-05-15T00:21:38.590Z,9.10
2019-05-15T00:24:12.975Z,9.10
2019-05-15T00:26:39.089Z,9.10
2019-05-15T00:29:15.090Z,9.10
2019-05-15T00:31:39.875Z,9.10
2019-05-15T00:34:12.736Z,9.00
2019-05-15T00:36:40.359Z,9.00
2019-05-15T00:39:09.741Z,9.00
2019-05-15T00:41:50.841Z,9.00
2019-05-15T00:44:10.295Z,9.00
2019-05-15T00:46:39.654Z,9.00
2019-05-15T00:49:09.021Z,9.00
2019-05-15T00:51:38.992Z,8.90
2019-05-15T00:54:08.750Z,8.90
2019-05-15T00:56:39.089Z,8.90
2019-05-15T00:59:08.608Z,8.90
2019-05-15T01:01:38.309Z,8.80
2019-05-15T01:04:08.134Z,8.80
2019-05-15T01:06:38.924Z,8.80
2019-05-15T01:09:08.529Z,8.80
2019-05-15T01:11:38.293Z,8.80
2019-05-15T01:14:11.950Z,8.80
2019-05-15T01:16:38.909Z,8.80
2019-05-15T01:19:09.239Z,8.80
2019-05-15T01:21:39.148Z,8.80
2019-05-15T01:24:08.567Z,8.80
2019-05-15T01:26:38.499Z,8.70
2019-05-15T01:29:09.097Z,8.70
2019-05-15T01:31:38.513Z,8.70
2019-05-15T01:34:09.051Z,8.70
2019-05-15T01:36:38.534Z,8.70
2019-05-15T01:39:08.163Z,8.70
2019-05-15T01:41:38.612Z,8.60
2019-05-15T01:44:08.991Z,8.60
2019-05-15T01:46:39.287Z,8.60
2019-05-15T01:49:08.997Z,8.60
2019-05-15T01:51:38.642Z,8.50
2019-05-15T01:54:09.070Z,8.50
2019-05-15T01:56:38.892Z,8.50
2019-05-15T01:59:08.752Z,8.50
2019-05-15T02:01:39.149Z,8.40
2019-05-15T02:04:08.838Z,8.40
2019-05-15T02:06:39.063Z,8.40
2019-05-15T02:09:09.348Z,8.30
2019-05-15T02:11:38.713Z,8.30
2019-05-15T02:14:08.429Z,8.30
2019-05-15T02:16:39.305Z,8.30
2019-05-15T02:19:09.110Z,8.20
2019-05-15T02:21:38.557Z,8.20
2019-05-15T02:24:08.091Z,8.20
2019-05-15T02:26:38.882Z,8.10
2019-05-15T02:29:13.138Z,8.10
2019-05-15T02:31:40.113Z,8.10
2019-05-15T02:34:10.443Z,8.00
2019-05-15T02:36:40.386Z,8.00
2019-05-15T02:39:30.624Z,8.00
2019-05-15T02:42:00.082Z,7.90
2019-05-15T02:44:29.480Z,7.90
2019-05-15T02:46:59.036Z,7.90
2019-05-15T02:49:30.117Z,7.80
2019-05-15T02:52:00.433Z,7.80
2019-05-15T02:54:30.374Z,7.80
2019-05-15T02:57:00.095Z,7.70
2019-05-15T02:59:29.683Z,7.70
2019-05-15T03:01:59.609Z,7.70
2019-05-15T03:04:29.473Z,7.70
2019-05-15T03:07:00.332Z,7.70
2019-05-15T03:09:30.166Z,7.60
2019-05-15T03:11:59.988Z,7.60
2019-05-15T03:14:29.716Z,7.60
2019-05-15T03:16:59.843Z,7.60
2019-05-15T03:19:30.125Z,7.60
2019-05-15T03:22:00.099Z,7.60
2019-05-15T03:24:29.430Z,7.60
2019-05-15T03:26:59.451Z,7.60
2019-05-15T03:29:29.391Z,7.60
2019-05-15T03:32:14.138Z,7.60
2019-05-15T03:34:38.430Z,7.60
2019-05-15T03:37:04.005Z,7.60
2019-05-15T03:39:33.336Z,7.60
2019-05-15T03:42:02.705Z,7.60
2019-05-15T03:44:32.064Z,7.60
2019-05-15T03:47:01.428Z,7.60
2019-05-15T03:49:30.811Z,7.60
2019-05-15T03:52:00.179Z,7.70
2019-05-15T03:54:29.642Z,7.70
2019-05-15T03:56:59.182Z,7.70
2019-05-15T03:59:29.457Z,7.70
2019-05-15T04:02:00.115Z,7.70
2019-05-15T04:04:29.847Z,7.70
2019-05-15T04:06:59.843Z,7.70
2019-05-15T04:09:29.630Z,7.80
2019-05-15T04:12:00.060Z,7.80
2019-05-15T04:14:29.871Z,7.80
2019-05-15T04:16:59.676Z,7.90
2019-05-15T04:19:29.852Z,7.90
2019-05-15T04:22:00.237Z,7.90
2019-05-15T04:24:31.462Z,8.00
2019-05-15T04:27:06.397Z,8.00
2019-05-15T04:29:34.774Z,8.00
2019-05-15T04:32:06.050Z,8.10
2019-05-15T04:34:35.795Z,8.10
2019-05-15T04:37:05.162Z,8.10
2019-05-15T04:39:34.529Z,8.20
2019-05-15T04:42:03.924Z,8.20
2019-05-15T04:44:33.339Z,8.30
2019-05-15T04:47:02.711Z,8.30
2019-05-15T04:49:32.091Z,8.30
2019-05-15T04:52:03.746Z,8.40
2019-05-15T04:54:32.371Z,8.40
2019-05-15T04:57:02.056Z,8.40
2019-05-15T04:59:31.428Z,8.50
2019-05-15T05:02:16.292Z,8.50
2019-05-15T05:04:32.082Z,8.60
2019-05-15T05:07:01.440Z,8.60
2019-05-15T05:09:30.818Z,8.70
2019-05-15T05:12:00.194Z,8.70
2019-05-15T05:14:29.566Z,8.80
2019-05-15T05:16:59.379Z,8.90
2019-05-15T05:19:28.812Z,8.90
2019-05-15T05:21:58.590Z,9.00
2019-05-15T05:24:28.451Z,9.00
2019-05-15T05:26:58.217Z,9.10
2019-05-15T05:29:28.108Z,9.10
2019-05-15T05:31:58.570Z,9.20
2019-05-15T05:34:28.433Z,9.30
2019-05-15T05:36:58.914Z,9.30
2019-05-15T05:39:29.443Z,9.40
2019-05-15T05:41:59.517Z,9.50
2019-05-15T05:44:29.292Z,9.50
2019-05-15T05:46:58.933Z,9.60
2019-05-15T05:49:28.801Z,9.70
2019-05-15T05:51:58.825Z,9.80
2019-05-15T05:54:28.906Z,9.90
2019-05-15T05:56:58.740Z,9.90
2019-05-15T05:59:28.585Z,10.00
2019-05-15T06:01:59.034Z,10.10
2019-05-15T06:04:28.856Z,10.20
2019-05-15T06:07:07.033Z,10.30
2019-05-15T06:09:30.501Z,10.40
2019-05-15T06:11:59.948Z,10.50
2019-05-15T06:14:29.366Z,10.60
2019-05-15T06:16:59.038Z,10.70
2019-05-15T06:19:31.240Z,10.80
2019-05-15T06:22:01.045Z,10.90
2019-05-15T06:24:30.762Z,11.00
2019-05-15T06:27:01.057Z,11.10
2019-05-15T06:29:30.425Z,11.20
2019-05-15T06:31:59.791Z,11.40
2019-05-15T06:34:29.174Z,11.50
2019-05-15T06:36:58.931Z,11.60
2019-05-15T06:39:28.513Z,11.80
2019-05-15T06:41:58.835Z,11.90
2019-05-15T06:44:28.304Z,12.10
2019-05-15T06:46:58.758Z,12.30
2019-05-15T06:49:28.743Z,12.50
2019-05-15T06:51:58.313Z,12.60
2019-05-15T06:54:28.531Z,12.80
2019-05-15T06:56:58.470Z,12.90
2019-05-15T06:59:28.785Z,13.00
2019-05-15T07:01:59.322Z,13.10
2019-05-15T07:04:29.477Z,13.20
2019-05-15T07:06:58.851Z,13.30
2019-05-15T07:09:28.692Z,13.30
2019-05-15T07:11:59.070Z,13.40
2019-05-15T07:14:29.431Z,13.40
2019-05-15T07:16:59.344Z,13.50
2019-05-15T07:19:28.851Z,13.50
2019-05-15T07:21:58.286Z,13.60
2019-05-15T07:24:28.955Z,13.60
2019-05-15T07:26:59.351Z,13.70
2019-05-15T07:29:30.027Z,13.80
2019-05-15T07:31:59.749Z,13.80
2019-05-15T07:34:29.129Z,13.90
2019-05-15T07:36:59.146Z,14.00
2019-05-15T07:39:29.075Z,14.00
2019-05-15T07:41:58.476Z,14.10
2019-05-15T07:44:28.630Z,14.20
2019-05-15T07:46:58.655Z,14.30
2019-05-15T07:49:28.891Z,14.40
2019-05-15T07:51:59.191Z,14.50
2019-05-15T07:54:28.965Z,14.60
2019-05-15T07:56:58.332Z,14.70
2019-05-15T07:59:28.024Z,14.80
2019-05-15T08:01:58.163Z,14.80
2019-05-15T08:04:30.611Z,14.90
2019-05-15T08:06:59.466Z,15.00
2019-05-15T08:09:30.331Z,15.10
2019-05-15T08:12:03.254Z,15.20
2019-05-15T08:14:31.438Z,15.30
2019-05-15T08:17:00.815Z,15.40
2019-05-15T08:19:30.300Z,15.40
2019-05-15T08:21:59.696Z,15.50
2019-05-15T08:24:29.868Z,15.50
2019-05-15T08:26:59.439Z,15.60
2019-05-15T08:29:28.928Z,15.60
2019-05-15T08:31:58.932Z,15.70
2019-05-15T08:34:28.824Z,15.70
2019-05-15T08:36:59.051Z,15.80
2019-05-15T08:39:28.985Z,15.80
2019-05-15T08:41:58.949Z,15.90
2019-05-15T08:44:29.338Z,16.00
2019-05-15T08:46:59.200Z,16.00
2019-05-15T08:49:28.614Z,16.10
2019-05-15T08:51:58.524Z,16.10
2019-05-15T08:54:29.006Z,16.20
2019-05-15T08:56:59.329Z,16.30
2019-05-15T08:59:29.431Z,16.30
2019-05-15T09:01:59.114Z,16.40
2019-05-15T09:04:34.573Z,16.50
2019-05-15T09:07:01.317Z,16.50
2019-05-15T09:09:31.012Z,16.60
2019-05-15T09:12:00.465Z,16.60
2019-05-15T09:14:30.031Z,16.70
2019-05-15T09:16:59.404Z,16.70
2019-05-15T09:19:29.196Z,16.70
2019-05-15T09:21:58.658Z,16.70
2019-05-15T09:24:28.727Z,16.80
2019-05-15T09:26:59.429Z,16.70
2019-05-15T09:29:29.025Z,16.80
2019-05-15T09:31:58.959Z,16.80
2019-05-15T09:34:44.957Z,16.90
2019-05-15T09:37:00.095Z,16.90
2019-05-15T09:39:29.608Z,17.00
2019-05-15T09:41:59.353Z,17.00
2019-05-15T09:44:28.750Z,17.00
2019-05-15T09:46:58.564Z,17.00
2019-05-15T09:49:29.726Z,17.00
2019-05-15T09:51:59.100Z,16.90
2019-05-15T09:54:29.346Z,16.90
2019-05-15T09:56:58.868Z,17.00
2019-05-15T09:59:28.333Z,16.90
2019-05-15T10:01:58.860Z,17.00
2019-05-15T10:04:29.092Z,17.10
2019-05-15T10:06:58.742Z,17.10
2019-05-15T10:09:28.536Z,17.20
2019-05-15T10:11:58.275Z,17.30
2019-05-15T10:14:29.650Z,17.30
2019-05-15T10:16:59.179Z,17.30
2019-05-15T10:19:29.123Z,17.30
2019-05-15T10:21:59.652Z,17.40
2019-05-15T10:24:29.050Z,17.40
2019-05-15T10:26:59.058Z,17.40
2019-05-15T10:29:28.436Z,17.40
2019-05-15T10:31:57.797Z,17.40
2019-05-15T10:34:28.912Z,17.50
2019-05-15T10:36:58.916Z,17.50
2019-05-15T10:39:28.897Z,17.50
2019-05-15T10:41:58.546Z,17.60
2019-05-15T10:44:28.647Z,17.60
2019-05-15T10:46:58.612Z,17.60
2019-05-15T10:49:28.734Z,17.60
2019-05-15T10:51:58.150Z,17.60
2019-05-15T10:54:29.121Z,17.60
2019-05-15T10:57:00.914Z,17.50
2019-05-15T10:59:29.672Z,17.50
2019-05-15T11:01:59.248Z,17.50
2019-05-15T11:04:28.948Z,17.50
2019-05-15T11:06:58.547Z,17.50
2019-05-15T11:09:28.670Z,17.50
2019-05-15T11:11:58.571Z,17.50
2019-05-15T11:14:28.783Z,17.50
2019-05-15T11:16:58.929Z,17.50
2019-05-15T11:19:35.490Z,17.50
2019-05-15T11:22:00.146Z,17.60
2019-05-15T11:24:32.472Z,17.50
2019-05-15T11:27:00.931Z,17.50
2019-05-15T11:29:30.344Z,17.60
2019-05-15T11:31:59.714Z,17.60
2019-05-15T11:34:29.247Z,17.60
2019-05-15T11:36:59.298Z,17.70
2019-05-15T11:39:29.069Z,17.70
2019-05-15T11:41:58.415Z,17.80
2019-05-15T11:44:28.327Z,17.90
2019-05-15T11:46:58.653Z,17.90
2019-05-15T11:49:29.241Z,18.00
2019-05-15T11:52:00.496Z,18.00
2019-05-15T11:54:29.726Z,18.10
2019-05-15T11:56:59.811Z,18.10
2019-05-15T11:59:30.113Z,18.10
2019-05-15T12:01:59.703Z,18.10
2019-05-15T12:04:33.729Z,18.20
2019-05-15T12:07:02.646Z,18.20
2019-05-15T12:09:31.358Z,18.30
2019-05-15T12:12:00.793Z,18.30
2019-05-15T12:14:30.157Z,18.40
2019-05-15T12:17:09.638Z,18.40
2019-05-15T12:19:31.021Z,18.40
2019-05-15T12:22:00.790Z,18.40
2019-05-15T12:24:35.098Z,18.40
2019-05-15T12:27:13.651Z,18.40
2019-05-15T12:29:32.686Z,18.50
2019-05-15T12:34:33.637Z,18.60
2019-05-15T12:37:02.991Z,18.70
2019-05-15T12:39:32.360Z,18.70
2019-05-15T12:59:40.553Z,18.70
2019-05-15T13:02:10.335Z,18.60
2019-05-15T13:04:39.964Z,18.50
2019-05-15T13:07:13.841Z,18.50
2019-05-15T13:09:40.422Z,18.40
2019-05-15T13:12:09.874Z,18.30
2019-05-15T13:14:39.237Z,18.20
2019-05-15T13:17:08.612Z,18.00
2019-05-15T13:19:38.811Z,17.90
2019-05-15T13:22:17.613Z,17.80
2019-05-15T13:24:52.972Z,17.70
2019-05-15T13:27:22.340Z,17.70
2019-05-15T13:29:51.716Z,17.60
2019-05-15T13:32:21.120Z,17.60
2019-05-15T13:34:50.539Z,17.50
2019-05-15T13:37:27.339Z,17.40
2019-05-15T13:39:51.112Z,17.30
2019-05-15T13:42:20.499Z,17.20
2019-05-15T13:44:49.865Z,17.20
2019-05-15T13:47:19.616Z,17.10
2019-05-15T13:49:48.977Z,17.00
2019-05-15T13:52:18.843Z,16.90
2019-05-15T13:54:48.462Z,16.80
2019-05-15T13:57:18.114Z,16.80
2019-05-15T13:59:48.333Z,16.70
2019-05-15T14:02:18.706Z,16.70
2019-05-15T14:04:49.158Z,16.70
2019-05-15T14:07:19.368Z,16.70
2019-05-15T14:09:49.731Z,16.60
2019-05-15T14:12:19.102Z,16.70
2019-05-15T14:14:49.044Z,16.70
2019-05-15T14:17:18.535Z,16.70
2019-05-15T14:19:48.614Z,16.70
2019-05-15T14:22:18.362Z,16.70
2019-05-15T14:24:48.856Z,16.80
2019-05-15T14:27:19.765Z,16.80
2019-05-15T14:29:49.148Z,16.80
2019-05-15T14:32:34.117Z,16.90
2019-05-15T14:34:51.154Z,16.90
2019-05-15T14:37:20.562Z,17.00
2019-05-15T14:39:52.299Z,17.00
2019-05-15T14:42:21.078Z,17.10
2019-05-15T14:44:50.932Z,17.10
2019-05-15T14:47:20.593Z,17.20
2019-05-15T14:49:49.946Z,17.20
2019-05-15T14:52:19.325Z,17.30
2019-05-15T14:54:49.070Z,17.30
2019-05-15T14:57:18.477Z,17.40
2019-05-15T14:59:48.830Z,17.40
2019-05-15T15:02:18.969Z,17.50
2019-05-15T15:04:48.788Z,17.50
2019-05-15T15:07:18.922Z,17.60
2019-05-15T15:09:48.809Z,17.60
2019-05-15T15:12:18.882Z,17.70
2019-05-15T15:14:48.705Z,17.70
2019-05-15T15:17:19.545Z,17.80
2019-05-15T15:19:51.528Z,17.80
2019-05-15T15:22:20.599Z,17.80
2019-05-15T15:24:50.299Z,17.70
2019-05-15T15:27:19.853Z,17.70
2019-05-15T15:29:49.229Z,17.70
2019-05-15T15:32:18.611Z,17.70
2019-05-15T15:34:48.082Z,17.70
2019-05-15T15:37:17.437Z,17.70
2019-05-15T15:39:48.214Z,17.70
2019-05-15T15:42:17.776Z,17.70
2019-05-15T15:44:48.865Z,17.70
2019-05-15T15:47:18.636Z,19.10
2019-05-15T15:49:48.291Z,17.60
2019-05-15T15:52:18.093Z,17.60
2019-05-15T15:54:47.620Z,17.50
2019-05-15T15:57:19.172Z,17.40
2019-05-15T15:59:49.147Z,17.40
2019-05-15T16:02:18.789Z,17.30
2019-05-15T16:04:48.479Z,17.20
2019-05-15T16:07:18.157Z,17.10
2019-05-15T16:09:48.330Z,17.10
2019-05-15T16:12:18.573Z,17.10
2019-05-15T16:14:48.851Z,17.10
2019-05-15T16:17:18.470Z,17.00
2019-05-15T16:19:49.163Z,17.00
2019-05-15T16:22:19.083Z,16.90
2019-05-15T16:24:49.495Z,16.90
2019-05-15T16:27:18.880Z,16.80
2019-05-15T16:29:48.245Z,16.70
2019-05-15T16:32:21.124Z,16.60
2019-05-15T16:34:49.170Z,16.50
2019-05-15T16:37:18.865Z,16.50
2019-05-15T16:39:48.826Z,16.40
2019-05-15T16:42:18.498Z,16.30
2019-05-15T16:44:48.995Z,16.20
2019-05-15T16:47:19.117Z,16.20
2019-05-15T16:49:48.673Z,16.20
2019-05-15T16:52:18.251Z,16.10
2019-05-15T16:54:49.000Z,16.10
2019-05-15T16:57:18.593Z,16.00
2019-05-15T16:59:48.187Z,16.00
2019-05-15T17:02:18.776Z,15.90
2019-05-15T17:04:48.932Z,15.90
2019-05-15T17:07:18.689Z,15.80
2019-05-15T17:09:48.587Z,15.80
2019-05-15T17:12:17.951Z,15.80
2019-05-15T17:14:48.602Z,15.80
2019-05-15T17:17:18.445Z,15.70
2019-05-15T17:19:48.545Z,15.70
2019-05-15T17:22:18.555Z,15.70
2019-05-15T17:24:48.843Z,15.60
2019-05-15T17:27:18.677Z,15.60
2019-05-15T17:29:49.062Z,15.50
2019-05-15T17:32:19.230Z,15.50
2019-05-15T17:34:49.048Z,15.40
2019-05-15T17:37:18.421Z,15.40
2019-05-15T17:39:48.498Z,15.30
2019-05-15T17:42:18.358Z,15.20
2019-05-15T17:44:48.793Z,15.10
2019-05-15T17:47:18.287Z,15.10
2019-05-15T17:49:48.164Z,15.00
2019-05-15T17:52:18.414Z,14.90
2019-05-15T17:54:49.121Z,14.70
2019-05-15T17:57:19.461Z,14.60
2019-05-15T17:59:48.985Z,14.50
2019-05-15T18:02:18.962Z,14.40
2019-05-15T18:04:48.452Z,14.30
2019-05-15T18:07:17.821Z,14.20
2019-05-15T18:09:53.879Z,14.10
2019-05-15T18:12:18.820Z,14.00
2019-05-15T18:14:48.196Z,13.90
2019-05-15T18:17:18.692Z,13.90
2019-05-15T18:19:48.726Z,13.90
2019-05-15T18:22:18.229Z,13.80
2019-05-15T18:24:48.556Z,13.80
2019-05-15T18:27:18.634Z,13.80
2019-05-15T18:29:48.286Z,13.80
2019-05-15T18:32:18.928Z,13.80
2019-05-15T18:34:48.971Z,13.80
2019-05-15T18:37:19.223Z,13.80
2019-05-15T18:40:02.219Z,13.80
2019-05-15T18:42:20.224Z,13.80
2019-05-15T18:44:49.587Z,13.80
2019-05-15T18:47:19.574Z,13.80
2019-05-15T18:50:03.255Z,13.80
2019-05-15T18:52:20.029Z,13.80
2019-05-15T18:54:49.905Z,13.80
2019-05-15T18:57:19.277Z,13.80
2019-05-15T18:59:48.811Z,13.80
2019-05-15T19:02:19.167Z,13.70
2019-05-15T19:04:49.136Z,13.80
2019-05-15T19:07:19.165Z,13.80
2019-05-15T19:09:48.631Z,13.80
2019-05-15T19:12:18.107Z,13.80
2019-05-15T19:14:49.414Z,13.80
2019-05-15T19:17:18.923Z,13.80
2019-05-15T19:19:48.331Z,13.80
2019-05-15T19:22:19.284Z,13.70
2019-05-15T19:24:49.229Z,13.70
2019-05-15T19:27:18.871Z,13.70
2019-05-15T19:29:48.479Z,13.70
2019-05-15T19:32:17.883Z,13.70
2019-05-15T19:34:48.398Z,13.60
2019-05-15T19:37:18.464Z,13.70
2019-05-15T19:39:48.256Z,13.70
2019-05-15T19:42:18.260Z,13.70
2019-05-15T19:44:48.475Z,13.70
2019-05-15T19:47:19.695Z,13.70
2019-05-15T19:49:49.534Z,13.70
2019-05-15T19:52:18.900Z,13.70
2019-05-15T19:54:48.641Z,13.60
2019-05-15T19:57:18.686Z,13.60
2019-05-15T19:59:48.825Z,13.60
2019-05-15T20:02:18.499Z,13.60
2019-05-15T20:04:49.085Z,13.60
2019-05-15T20:07:18.750Z,13.60
2019-05-15T20:09:48.351Z,13.60
2019-05-15T20:12:18.539Z,13.60
2019-05-15T20:14:48.855Z,13.60
2019-05-15T20:17:18.443Z,13.70
2019-05-15T20:19:48.835Z,13.60
2019-05-15T20:22:18.888Z,13.60
2019-05-15T20:24:48.312Z,13.60
2019-05-15T20:27:18.764Z,13.60
2019-05-15T20:29:48.730Z,13.60
2019-05-15T20:32:19.103Z,13.60
2019-05-15T20:34:48.482Z,13.60
2019-05-15T20:37:18.358Z,13.60
2019-05-15T20:39:49.212Z,13.50
2019-05-15T20:42:19.424Z,13.50
2019-05-15T20:44:49.180Z,13.50
2019-05-15T20:47:18.899Z,13.50
2019-05-15T20:49:48.677Z,13.50
2019-05-15T20:52:21.764Z,13.50
2019-05-15T20:54:51.592Z,13.50
2019-05-15T20:57:20.936Z,13.50
2019-05-15T20:59:50.794Z,13.50
2019-05-15T21:02:20.197Z,13.50
2019-05-15T21:04:49.557Z,13.50
2019-05-15T21:07:33.295Z,13.50
2019-05-15T21:09:50.049Z,13.50
2019-05-15T21:12:19.476Z,13.50
2019-05-15T21:14:48.890Z,13.50
2019-05-15T21:17:19.996Z,13.50
2019-05-15T21:19:49.551Z,13.50
2019-05-15T21:22:18.957Z,13.50
2019-05-15T21:24:48.355Z,13.50
2019-05-15T21:27:22.776Z,13.50
2019-05-15T21:29:49.114Z,13.50
2019-05-15T21:32:19.599Z,13.50
2019-05-15T21:34:49.523Z,13.40
2019-05-15T21:37:18.880Z,13.40
2019-05-15T21:39:48.681Z,13.50
2019-05-15T21:42:18.454Z,13.40
2019-05-15T21:44:48.989Z,13.50
2019-05-15T21:47:18.894Z,13.50
2019-05-15T21:49:48.464Z,13.50
2019-05-15T21:52:18.552Z,13.50
2019-05-15T21:54:50.401Z,13.50
2019-05-15T21:57:33.034Z,13.50
2019-05-15T21:59:51.086Z,13.50
2019-05-15T22:02:20.711Z,13.50
2019-05-15T22:04:55.640Z,13.50
2019-05-15T22:07:21.600Z,13.50
2019-05-15T22:09:51.607Z,13.50
2019-05-15T22:12:21.281Z,13.50
2019-05-15T22:14:50.654Z,13.40
2019-05-15T22:17:20.148Z,13.40
2019-05-15T22:19:49.497Z,13.50
2019-05-15T22:22:18.871Z,13.50
2019-05-15T22:24:48.447Z,13.40
2019-05-15T22:27:18.016Z,13.50
2019-05-15T22:29:48.922Z,13.40
2019-05-15T22:32:19.323Z,13.40
2019-05-15T22:34:52.533Z,13.40
2019-05-15T22:37:21.597Z,13.40
2019-05-15T22:39:50.885Z,13.40
2019-05-15T22:42:20.258Z,13.40
2019-05-15T22:44:49.624Z,13.40
2019-05-15T22:47:19.937Z,13.40
2019-05-15T22:49:49.375Z,13.40
2019-05-15T22:52:18.737Z,13.40
2019-05-15T22:54:48.509Z,13.40
2019-05-15T22:57:17.877Z,13.30
2019-05-15T22:59:48.738Z,13.30
2019-05-15T23:02:18.185Z,13.30
2019-05-15T23:04:47.725Z,13.30
2019-05-15T23:07:18.966Z,13.30
2019-05-15T23:09:48.969Z,13.20
2019-05-15T23:12:18.456Z,13.20
2019-05-15T23:14:48.534Z,13.10
2019-05-15T23:17:18.274Z,13.10
2019-05-15T23:19:48.624Z,13.00
2019-05-15T23:22:18.669Z,13.00
2019-05-15T23:24:48.371Z,12.90
2019-05-15T23:27:18.198Z,12.80
2019-05-15T23:29:49.106Z,12.80
2019-05-15T23:32:18.537Z,12.80
2019-05-15T23:34:49.131Z,12.70
2019-05-15T23:37:18.934Z,12.70
2019-05-15T23:39:48.871Z,12.70
2019-05-15T23:42:18.631Z,12.70
2019-05-15T23:44:48.711Z,12.60
2019-05-15T23:47:18.212Z,12.60
2019-05-15T23:49:48.584Z,12.60
2019-05-15T23:52:18.075Z,12.60
2019-05-15T23:54:47.462Z,12.60
2019-05-15T23:57:18.029Z,12.60
2019-05-15T23:59:47.780Z,12.60
